Time;durP1;ratioP1;P1;durP2;ratioP2;P2;SDS_P1;SDS_P2;PMS_P1;PMS_P2;Temp;Humidity;BMP_temperature;BMP_pressure;BME280_temperature;BME280_humidity;BME280_pressure;Samples;Min_cycle;Max_cycle;Signal;HPM_P1;HPM_P2
2021/03/03 00:00:39;;;;;;;33.08;19.20;;;;;;;5.27;57.91;101538.50;4479079;31;33090;-85
2021/03/03 00:03:07;;;;;;;34.30;20.10;;;;;;;5.24;57.97;101536.75;4478760;31;34146;-85
2021/03/03 00:05:34;;;;;;;37.40;20.42;;;;;;;5.30;57.72;101541.13;4466003;31;35230;-85
2021/03/03 00:08:02;;;;;;;42.58;21.75;;;;;;;5.28;57.85;101538.53;4479970;31;35383;-86
2021/03/03 00:10:30;;;;;;;39.25;20.58;;;;;;;5.25;57.70;101537.63;4491032;31;33846;-85
2021/03/03 00:12:57;;;;;;;42.13;21.92;;;;;;;4.94;58.64;101539.16;4491533;31;33087;-85
2021/03/03 00:15:24;;;;;;;41.25;21.52;;;;;;;5.16;58.21;101538.44;4470048;31;35384;-85
2021/03/03 00:17:52;;;;;;;39.33;22.23;;;;;;;5.13;57.87;101533.19;4478225;31;34344;-86
2021/03/03 00:20:19;;;;;;;45.95;22.20;;;;;;;5.17;57.73;101529.72;4490474;31;34156;-85
2021/03/03 00:22:47;;;;;;;40.53;21.65;;;;;;;5.11;57.88;101532.28;4478182;31;34616;-88
2021/03/03 00:25:14;;;;;;;45.75;22.87;;;;;;;5.04;58.02;101538.37;4464288;31;34506;-88
2021/03/03 00:27:42;;;;;;;51.92;25.60;;;;;;;4.96;58.05;101532.19;4486707;31;34731;-84
2021/03/03 00:30:16;;;;;;;49.97;24.30;;;;;;;4.95;57.93;101527.84;4464579;31;34580;-84
2021/03/03 00:32:43;;;;;;;55.25;25.02;;;;;;;4.76;58.52;101532.94;4488475;31;33767;-85
2021/03/03 00:35:11;;;;;;;44.60;23.58;;;;;;;4.74;58.52;101524.19;4489502;31;33381;-85
2021/03/03 00:37:39;;;;;;;42.92;22.75;;;;;;;4.88;58.06;101524.28;4491533;31;34252;-84
2021/03/03 00:40:08;;;;;;;40.33;21.87;;;;;;;4.87;58.46;101512.94;4478038;31;36559;-85
2021/03/03 00:42:36;;;;;;;38.20;20.98;;;;;;;4.88;58.30;101522.53;4466731;31;34571;-85
2021/03/03 00:45:05;;;;;;;37.92;21.23;;;;;;;4.68;58.86;101520.66;4465283;31;33707;-85
2021/03/03 00:47:32;;;;;;;38.10;19.40;;;;;;;4.66;58.91;101511.94;4479879;31;33346;-84
2021/03/03 00:50:00;;;;;;;40.67;21.62;;;;;;;4.85;58.45;101509.44;4492370;31;33445;-85
2021/03/03 00:52:28;;;;;;;36.33;19.20;;;;;;;4.72;59.23;101509.34;4464363;31;35043;-85
2021/03/03 00:54:56;;;;;;;41.60;21.00;;;;;;;4.46;60.11;101511.72;4469759;31;34233;-84
2021/03/03 00:57:23;;;;;;;33.03;19.00;;;;;;;4.60;59.39;101507.50;4478166;31;34579;-88
2021/03/03 00:59:51;;;;;;;37.25;19.87;;;;;;;4.84;58.64;101506.81;4479429;31;33724;-88
2021/03/03 01:02:19;;;;;;;34.45;19.55;;;;;;;4.92;58.00;101499.88;4479130;31;33301;-88
2021/03/03 01:04:47;;;;;;;32.72;19.08;;;;;;;4.75;58.10;101505.03;4465391;31;34846;-88
2021/03/03 01:07:15;;;;;;;38.20;18.52;;;;;;;4.73;58.24;101498.88;4484421;31;34515;-87
2021/03/03 01:09:42;;;;;;;33.25;17.73;;;;;;;4.65;58.42;101502.28;4490878;31;33563;-88
2021/03/03 01:12:10;;;;;;;35.75;19.05;;;;;;;4.60;58.94;101497.94;4465920;31;34035;-88
2021/03/03 01:14:38;;;;;;;40.28;19.75;;;;;;;4.62;58.68;101497.94;4488348;31;32182;-88
2021/03/03 01:17:06;;;;;;;33.30;19.02;;;;;;;4.68;58.42;101497.97;4476642;31;33931;-88
2021/03/03 01:19:33;;;;;;;35.88;19.75;;;;;;;4.41;59.16;101493.38;4452209;31;33955;-87
2021/03/03 01:22:01;;;;;;;30.95;18.52;;;;;;;4.48;58.73;101487.34;4490643;31;33231;-89
2021/03/03 01:24:28;;;;;;;35.85;19.40;;;;;;;4.58;58.58;101490.91;4484826;31;33363;-88
2021/03/03 01:26:56;;;;;;;41.50;18.92;;;;;;;4.64;58.43;101488.34;4465599;31;34708;-88
2021/03/03 01:29:24;;;;;;;41.47;20.40;;;;;;;4.32;59.30;101488.97;4477202;31;33600;-87
2021/03/03 01:31:51;;;;;;;35.83;19.87;;;;;;;4.32;59.64;101491.59;4470756;31;34899;-87
2021/03/03 01:34:19;;;;;;;40.15;20.75;;;;;;;4.29;59.88;101486.31;4477309;31;33723;-87
2021/03/03 01:36:47;;;;;;;34.42;18.23;;;;;;;4.29;59.81;101488.94;4475398;31;33845;-86
2021/03/03 01:39:14;;;;;;;35.90;19.40;;;;;;;4.24;60.13;101485.41;4489706;31;33891;-87
2021/03/03 01:41:42;;;;;;;38.17;18.77;;;;;;;3.89;61.18;101471.97;4476266;31;33861;-87
2021/03/03 01:44:09;;;;;;;38.70;20.33;;;;;;;4.09;60.97;101482.66;4481888;32;34642;-87
2021/03/03 01:46:37;;;;;;;35.60;18.77;;;;;;;4.30;60.08;101480.22;4476800;31;33333;-87
2021/03/03 01:49:05;;;;;;;33.92;18.20;;;;;;;4.35;59.97;101478.53;4462834;31;34662;-87
2021/03/03 01:51:33;;;;;;;33.25;17.87;;;;;;;4.22;60.48;101475.78;4477978;31;33239;-86
2021/03/03 01:54:01;;;;;;;32.67;18.17;;;;;;;3.94;61.22;101474.63;4472775;31;34100;-86
2021/03/03 01:56:28;;;;;;;41.40;20.00;;;;;;;3.88;61.01;101469.34;4471383;31;34531;-90
2021/03/03 01:58:56;;;;;;;36.53;19.37;;;;;;;3.82;61.40;101475.41;4465012;31;34303;-89
2021/03/03 02:01:24;;;;;;;36.15;19.85;;;;;;;3.86;61.57;101471.97;4478019;31;35103;-89
2021/03/03 02:03:52;;;;;;;36.15;19.23;;;;;;;4.00;61.01;101470.38;4489904;31;34380;-90
2021/03/03 02:06:26;;;;;;;41.53;19.98;;;;;;;4.01;61.20;101473.84;4476318;31;35389;-90
2021/03/03 02:09:21;;;;;;;37.15;19.40;;;;;;;4.24;60.61;101472.34;4467419;31;34650;-89
2021/03/03 02:11:54;;;;;;;37.72;18.73;;;;;;;4.24;60.27;101464.50;4485669;31;35106;-84
2021/03/03 02:14:25;;;;;;;33.15;18.58;;;;;;;4.18;60.65;101467.06;4494681;31;33206;-84
2021/03/03 02:16:53;;;;;;;31.48;17.35;;;;;;;4.17;60.47;101472.25;4495376;31;33191;-84
2021/03/03 02:19:29;;;;;;;39.75;19.33;;;;;;;4.17;60.23;101467.91;4478008;31;33820;-84
2021/03/03 02:22:39;;;;;;;33.35;17.95;;;;;;;4.15;60.11;101461.78;4477853;31;33543;-84
2021/03/03 02:25:21;;;;;;;33.35;18.10;;;;;;;4.29;nan;101457.56;4477382;31;32905;-84
2021/03/03 02:27:49;;;;;;;31.75;16.83;;;;;;;4.04;60.20;101466.06;4469623;31;33573;-84
2021/03/03 02:30:18;;;;;;;37.17;18.30;;;;;;;3.87;60.53;101459.78;4477565;31;34538;-84
2021/03/03 02:32:51;;;;;;;35.88;19.70;;;;;;;3.84;60.80;101458.88;4482088;31;33685;-85
2021/03/03 02:35:20;;;;;;;36.72;20.08;;;;;;;3.90;60.65;101457.22;4490791;31;33172;-86
2021/03/03 02:37:48;;;;;;;39.47;18.23;;;;;;;4.03;60.36;101464.28;4473989;31;34034;-86
2021/03/03 02:40:16;;;;;;;33.08;18.62;;;;;;;4.00;60.30;101451.19;4467248;31;35563;-86
2021/03/03 02:42:44;;;;;;;39.67;19.10;;;;;;;4.04;60.40;101455.59;4466320;31;34142;-86
2021/03/03 02:45:18;;;;;;;35.85;17.92;;;;;;;4.04;60.06;101461.69;4478915;31;34077;-86
2021/03/03 02:47:47;;;;;;;37.30;19.17;;;;;;;4.07;60.00;101459.09;4478756;31;33381;-86
2021/03/03 02:50:15;;;;;;;37.35;19.95;;;;;;;4.09;60.09;101460.00;4492242;31;34092;-90
2021/03/03 02:53:01;;;;;;;34.80;18.23;;;;;;;4.05;59.98;101454.72;4473252;31;34489;-90
2021/03/03 02:55:29;;;;;;;33.63;18.12;;;;;;;3.69;60.91;101453.50;4478995;31;34100;-88
2021/03/03 02:57:58;;;;;;;38.05;18.75;;;;;;;3.83;60.99;101451.91;4492731;31;33651;-88
2021/03/03 03:00:30;;;;;;;33.60;18.10;;;;;;;3.87;61.48;101449.31;4477234;31;35436;-88
2021/03/03 03:03:20;;;;;;;30.90;17.40;;;;;;;3.89;61.45;101442.34;4477963;31;33272;-88
2021/03/03 03:05:53;;;;;;;34.00;17.55;;;;;;;3.95;61.02;101445.06;4479110;31;33203;-87
2021/03/03 03:08:21;;;;;;;33.67;18.25;;;;;;;4.01;60.46;101445.09;4467060;31;34225;-87
2021/03/03 03:10:49;;;;;;;39.20;18.62;;;;;;;3.94;60.50;101445.88;4467478;31;34284;-87
2021/03/03 03:13:17;;;;;;;36.05;19.12;;;;;;;4.00;60.24;101446.84;4491011;31;33327;-87
2021/03/03 03:15:46;;;;;;;33.97;17.92;;;;;;;4.01;60.03;101445.09;4467961;31;32595;-87
2021/03/03 03:18:16;;;;;;;34.50;18.00;;;;;;;3.93;60.44;101449.38;4478225;31;33726;-88
2021/03/03 03:20:45;;;;;;;32.30;17.42;;;;;;;4.05;60.22;101453.00;4479372;31;34360;-89
2021/03/03 03:23:14;;;;;;;37.92;18.08;;;;;;;3.95;60.28;101447.66;4493558;31;33709;-88
2021/03/03 03:25:44;;;;;;;32.40;17.65;;;;;;;3.93;60.84;101447.63;4477832;31;35049;-88
2021/03/03 03:28:12;;;;;;;37.15;18.02;;;;;;;3.94;60.55;101448.50;4477996;32;33674;-88
2021/03/03 03:30:39;;;;;;;34.83;17.27;;;;;;;4.05;60.34;101449.50;4477455;31;33634;-89
2021/03/03 03:33:08;;;;;;;34.17;18.02;;;;;;;4.01;60.40;101452.94;4476224;31;34552;-89
2021/03/03 03:35:36;;;;;;;34.38;17.90;;;;;;;3.90;60.72;101451.97;4489361;31;33085;-89
2021/03/03 03:38:04;;;;;;;29.80;16.15;;;;;;;4.16;59.91;101455.69;4469197;31;35738;-89
2021/03/03 03:40:31;;;;;;;39.28;17.42;;;;;;;4.11;59.66;101446.94;4475947;31;34608;-90
2021/03/03 03:43:03;;;;;;;32.95;16.83;;;;;;;4.09;59.87;101448.69;4484791;31;34269;-90
2021/03/03 03:45:33;;;;;;;29.08;15.85;;;;;;;4.08;60.31;101453.03;4474921;31;34887;-90
2021/03/03 03:48:01;;;;;;;27.13;15.82;;;;;;;3.99;60.18;101457.28;4464851;31;34254;-90
2021/03/03 03:50:29;;;;;;;30.83;16.02;;;;;;;4.11;59.85;101452.16;4477784;32;34241;-89
2021/03/03 03:52:57;;;;;;;34.55;15.88;;;;;;;4.01;60.47;101458.19;4478680;31;34363;-90
2021/03/03 03:55:35;;;;;;;29.48;15.60;;;;;;;4.03;60.48;101459.94;4465139;31;34510;-89
2021/03/03 03:58:04;;;;;;;27.37;14.87;;;;;;;3.96;60.63;101452.03;4477321;31;34427;-89
2021/03/03 04:00:32;;;;;;;28.20;15.27;;;;;;;3.88;60.83;101444.09;4476963;31;34345;-88
2021/03/03 04:03:00;;;;;;;28.15;15.38;;;;;;;3.88;60.76;101453.69;4479206;31;34603;-88
2021/03/03 04:05:28;;;;;;;26.80;15.98;;;;;;;3.46;61.57;101450.59;4479614;31;34251;-87
2021/03/03 04:07:56;;;;;;;32.60;16.25;;;;;;;3.39;62.12;101463.59;4477639;31;35231;-87
2021/03/03 04:10:26;;;;;;;30.27;14.63;;;;;;;3.67;61.37;101455.22;4476618;31;34744;-87
2021/03/03 04:12:54;;;;;;;32.85;15.20;;;;;;;3.87;60.12;101459.78;4478491;31;34464;-88
2021/03/03 04:15:22;;;;;;;33.85;15.48;;;;;;;3.77;60.83;101458.81;4478031;31;33823;-88
2021/03/03 04:17:51;;;;;;;31.42;15.27;;;;;;;3.66;61.16;101463.94;4491602;31;33456;-89
2021/03/03 04:20:20;;;;;;;31.65;16.50;;;;;;;3.80;60.44;101464.94;4464003;31;34612;-88
2021/03/03 04:22:47;;;;;;;31.37;16.52;;;;;;;3.54;60.87;101463.78;4491170;31;34294;-89
2021/03/03 04:25:17;;;;;;;27.20;15.43;;;;;;;3.70;60.55;101465.69;4493349;31;32650;-88
2021/03/03 04:27:44;;;;;;;28.60;16.37;;;;;;;3.79;60.65;101459.69;4479302;31;33417;-88
2021/03/03 04:30:15;;;;;;;32.92;16.02;;;;;;;3.73;60.33;101464.84;4475634;31;35497;-88
2021/03/03 04:32:42;;;;;;;36.80;17.17;;;;;;;3.63;60.17;101463.00;4490770;31;33677;-86
2021/03/03 04:35:10;;;;;;;24.60;14.25;;;;;;;3.76;59.74;101465.78;4469941;31;35357;-87
2021/03/03 04:37:38;;;;;;;29.30;14.15;;;;;;;3.71;59.90;101467.47;4463838;31;35553;-87
2021/03/03 04:40:08;;;;;;;32.85;15.60;;;;;;;3.66;60.22;101463.94;4465543;31;34711;-88
2021/03/03 04:42:36;;;;;;;34.17;17.23;;;;;;;3.48;60.70;101458.47;4470011;31;34128;-89
2021/03/03 04:45:06;;;;;;;28.05;13.90;;;;;;;3.60;60.31;101461.22;4479672;32;33829;-89
2021/03/03 04:47:35;;;;;;;32.90;15.18;;;;;;;3.54;60.57;101461.16;4468238;31;34693;-89
2021/03/03 04:50:03;;;;;;;29.60;16.17;;;;;;;3.63;60.19;101458.66;4484043;31;33317;-89
2021/03/03 04:52:31;;;;;;;26.92;14.27;;;;;;;3.59;60.60;101462.09;4492522;31;32541;-89
2021/03/03 04:54:59;;;;;;;27.08;14.95;;;;;;;3.49;60.75;101462.84;4465133;31;34803;-90
2021/03/03 04:57:26;;;;;;;32.03;16.55;;;;;;;3.65;60.33;101458.66;4465829;31;35205;-89
2021/03/03 04:59:53;;;;;;;29.50;16.62;;;;;;;3.69;60.10;101463.06;4483412;31;33274;-90
2021/03/03 05:02:21;;;;;;;29.23;15.45;;;;;;;3.64;60.10;101465.62;4479593;31;34487;-90
2021/03/03 05:04:49;;;;;;;29.05;15.23;;;;;;;3.82;59.65;101460.59;4483355;31;34438;-90
2021/03/03 05:07:16;;;;;;;33.17;16.37;;;;;;;3.62;59.92;101456.91;4463257;31;33729;-89
2021/03/03 05:09:44;;;;;;;30.27;16.12;;;;;;;3.69;59.37;101458.72;4476189;31;34362;-89
2021/03/03 05:12:11;;;;;;;31.83;16.55;;;;;;;3.69;59.48;101456.09;4491275;31;33584;-87
2021/03/03 05:14:38;;;;;;;31.02;15.65;;;;;;;3.58;59.72;101461.22;4482510;31;35002;-87
2021/03/03 05:17:06;;;;;;;35.45;16.37;;;;;;;3.49;59.51;101461.09;4463298;31;35644;-87
2021/03/03 05:19:34;;;;;;;33.08;15.73;;;;;;;3.45;59.90;101458.44;4476511;31;33681;-88
2021/03/03 05:22:01;;;;;;;30.37;16.08;;;;;;;3.38;59.99;101461.84;4465156;31;34229;-87
2021/03/03 05:24:29;;;;;;;34.38;15.77;;;;;;;3.54;59.46;101458.53;4477717;31;32795;-88
2021/03/03 05:26:56;;;;;;;31.80;15.70;;;;;;;3.56;59.62;101457.72;4490491;31;33440;-88
2021/03/03 05:29:24;;;;;;;30.23;15.00;;;;;;;3.51;59.48;101459.41;4478166;31;33433;-88
2021/03/03 05:31:52;;;;;;;31.42;16.83;;;;;;;3.47;59.60;101456.75;4487866;31;34162;-87
2021/03/03 05:34:19;;;;;;;33.40;17.37;;;;;;;3.51;59.62;101458.50;4477390;31;32630;-87
2021/03/03 05:36:47;;;;;;;32.63;16.10;;;;;;;3.11;61.26;101460.63;4473950;31;34102;-87
2021/03/03 05:39:14;;;;;;;33.85;16.17;;;;;;;3.36;60.42;101453.09;4491753;31;33821;-87
2021/03/03 05:41:42;;;;;;;27.95;14.80;;;;;;;3.48;60.03;101454.13;4467487;32;34546;-86
2021/03/03 05:44:10;;;;;;;37.88;16.25;;;;;;;3.38;60.20;101452.28;4467008;31;34134;-87
2021/03/03 05:46:39;;;;;;;29.15;15.95;;;;;;;3.26;60.60;101453.00;4463982;31;35498;-89
2021/03/03 05:49:06;;;;;;;30.60;14.82;;;;;;;3.38;60.46;101461.84;4488887;31;33442;-86
2021/03/03 05:51:35;;;;;;;31.23;16.77;;;;;;;3.49;60.04;101455.88;4488793;31;33207;-87
2021/03/03 05:54:04;;;;;;;29.75;16.42;;;;;;;3.57;60.05;101461.19;4480175;31;34138;-86
2021/03/03 05:56:32;;;;;;;29.00;15.75;;;;;;;3.51;60.23;101454.19;4477961;31;33838;-86
2021/03/03 05:59:20;;;;;;;34.08;16.98;;;;;;;3.57;60.60;101461.19;4471473;31;33414;-86
2021/03/03 06:01:48;;;;;;;34.33;16.02;;;;;;;3.73;60.20;101464.84;4480863;31;33554;-90
2021/03/03 06:04:21;;;;;;;32.05;16.75;;;;;;;3.79;59.90;101463.16;4489433;31;32895;-89
2021/03/03 06:06:48;;;;;;;36.33;16.85;;;;;;;3.73;60.03;101460.50;4484853;31;34522;-91
2021/03/03 06:09:19;;;;;;;32.13;16.30;;;;;;;3.82;60.05;101454.50;4467268;31;34702;-90
2021/03/03 06:11:47;;;;;;;34.33;15.77;;;;;;;3.72;60.29;101458.75;4469842;31;33924;-90
2021/03/03 06:14:15;;;;;;;33.47;16.45;;;;;;;3.85;60.63;101459.78;4490862;31;32850;-90
2021/03/03 06:16:43;;;;;;;32.92;16.73;;;;;;;3.98;60.48;101455.53;4480963;31;33634;-89
2021/03/03 06:19:11;;;;;;;34.20;15.77;;;;;;;4.00;60.71;101451.19;4475990;31;33624;-89
2021/03/03 06:21:39;;;;;;;34.90;17.85;;;;;;;3.88;61.11;101456.28;4477224;31;34454;-89
2021/03/03 06:24:08;;;;;;;31.90;16.25;;;;;;;4.03;60.78;101453.81;4491427;31;32947;-89
2021/03/03 06:26:57;;;;;;;33.30;16.67;;;;;;;4.26;60.33;101454.91;4479565;31;33626;-91
2021/03/03 06:29:24;;;;;;;34.20;16.75;;;;;;;4.33;60.54;101456.72;4480421;31;34482;-90
2021/03/03 06:31:52;;;;;;;36.83;17.08;;;;;;;4.35;60.27;101452.38;4464017;32;34042;-91
2021/03/03 06:34:32;;;;;;;35.30;16.48;;;;;;;4.31;60.75;101455.81;4478340;31;32870;-89
2021/03/03 06:37:02;;;;;;;37.92;17.83;;;;;;;4.28;61.83;101450.59;4476302;31;33470;-87
2021/03/03 06:39:36;;;;;;;33.53;18.00;;;;;;;4.22;62.47;101450.50;4470102;31;35240;-88
2021/03/03 06:42:10;;;;;;;46.50;21.45;;;;;;;4.57;62.28;101449.94;4488541;31;33622;-87
2021/03/03 06:44:57;;;;;;;60.17;27.87;;;;;;;5.10;61.36;101439.78;4466973;31;34265;-88
2021/03/03 06:47:25;;;;;;;48.22;22.92;;;;;;;5.22;61.50;101438.97;4491250;31;32190;-87
2021/03/03 06:49:54;;;;;;;58.50;26.95;;;;;;;5.53;61.50;101446.94;4486880;31;33384;-89
2021/03/03 06:52:39;;;;;;;50.55;24.98;;;;;;;5.56;62.02;101444.34;4489265;31;34137;-87
2021/03/03 06:55:07;;;;;;;61.08;28.17;;;;;;;5.93;61.21;101441.81;4484130;31;33022;-87
2021/03/03 06:57:35;;;;;;;53.05;25.88;;;;;;;6.14;61.32;101441.84;4487338;31;33716;-87
2021/03/03 07:00:08;;;;;;;45.67;22.55;;;;;;;6.25;60.83;101441.84;4478989;32;33428;-87
2021/03/03 07:02:37;;;;;;;40.17;21.92;;;;;;;6.44;59.81;101445.34;4482529;32;34549;-88
2021/03/03 07:05:09;;;;;;;35.38;18.60;;;;;;;6.50;59.42;101432.22;4477565;32;33361;-86
2021/03/03 07:07:36;;;;;;;35.65;16.48;;;;;;;6.56;57.86;101433.09;4482469;31;34591;-88
2021/03/03 07:10:07;;;;;;;33.30;16.23;;;;;;;6.69;58.39;101433.94;4461982;31;35615;-88
2021/03/03 07:12:47;;;;;;;32.58;16.25;;;;;;;6.81;57.97;101427.81;4478772;31;33707;-88
2021/03/03 07:15:15;;;;;;;31.98;17.05;;;;;;;6.99;58.41;101426.87;4461050;32;34838;-89
2021/03/03 07:17:44;;;;;;;28.50;14.77;;;;;;;7.18;57.57;101426.81;4472229;32;33752;-89
2021/03/03 07:20:14;;;;;;;33.35;16.27;;;;;;;7.40;56.85;101432.84;4475276;31;33445;-89
2021/03/03 07:22:45;;;;;;;30.92;16.60;;;;;;;7.54;57.34;101427.50;4500709;31;33756;-88
2021/03/03 07:25:15;;;;;;;30.47;15.57;;;;;;;7.50;57.15;101425.81;4471548;31;34090;-88
2021/03/03 07:27:44;;;;;;;37.15;15.55;;;;;;;7.64;56.50;101423.97;4479045;32;33992;-88
2021/03/03 07:30:13;;;;;;;33.38;15.25;;;;;;;7.69;55.95;101422.19;4471649;32;35651;-89
2021/03/03 07:32:41;;;;;;;30.90;16.15;;;;;;;7.62;55.39;101419.59;4458966;32;35422;-89
2021/03/03 07:35:27;;;;;;;28.73;15.05;;;;;;;7.94;55.00;101417.66;4476446;31;34659;-88
2021/03/03 07:37:56;;;;;;;31.90;16.55;;;;;;;7.99;55.43;101422.00;4472637;32;35728;-89
2021/03/03 07:40:27;;;;;;;30.42;14.68;;;;;;;8.25;54.34;101425.28;4485984;31;33686;-88
2021/03/03 07:42:57;;;;;;;33.58;15.07;;;;;;;8.41;53.85;101424.31;4463161;32;34068;-88
2021/03/03 07:45:38;;;;;;;30.55;15.80;;;;;;;8.71;53.12;101423.16;4482781;31;34103;-88
2021/03/03 07:48:13;;;;;;;25.95;14.57;;;;;;;9.05;53.06;101416.63;4473888;32;33660;-88
2021/03/03 07:50:41;;;;;;;35.63;16.00;;;;;;;9.39;52.60;101412.69;4482006;31;33847;-88
2021/03/03 07:53:10;;;;;;;29.63;14.87;;;;;;;9.73;50.87;101412.22;4479671;31;33547;-88
2021/03/03 07:55:38;;;;;;;31.62;16.65;;;;;;;9.86;49.17;101419.06;4477416;31;35385;-88
2021/03/03 07:58:06;;;;;;;38.35;18.52;;;;;;;9.88;49.71;101412.00;4464617;31;34890;-88
2021/03/03 08:00:37;;;;;;;41.75;18.12;;;;;;;10.04;48.35;101414.41;4467505;31;34686;-88
2021/03/03 08:03:05;;;;;;;35.85;17.35;;;;;;;10.26;50.31;101410.56;4477145;31;33732;-88
2021/03/03 08:05:52;;;;;;;36.10;18.87;;;;;;;10.47;48.68;101412.81;4465211;31;33768;-87
2021/03/03 08:08:29;;;;;;;35.58;17.30;;;;;;;10.69;46.76;101415.97;4475087;31;34859;-87
2021/03/03 08:10:59;;;;;;;39.25;17.67;;;;;;;10.70;48.03;101411.53;4474155;31;33787;-90
2021/03/03 08:13:30;;;;;;;34.00;18.12;;;;;;;10.88;48.06;101412.97;4479914;31;34940;-88
2021/03/03 08:16:00;;;;;;;39.40;18.20;;;;;;;11.15;46.76;101407.13;4474428;32;32709;-89
2021/03/03 08:18:29;;;;;;;31.52;17.55;;;;;;;11.33;47.77;101405.88;4479367;31;34537;-89
2021/03/03 08:21:01;;;;;;;28.85;16.50;;;;;;;11.53;46.64;101403.66;4473373;31;34704;-88
2021/03/03 08:23:35;;;;;;;32.30;15.10;;;;;;;11.67;44.65;101406.00;4492070;31;33381;-88
2021/03/03 08:26:02;;;;;;;35.20;17.45;;;;;;;11.88;45.30;101407.34;4487402;31;33427;-89
2021/03/03 08:28:31;;;;;;;29.00;15.20;;;;;;;12.14;45.94;101397.88;4485964;31;34445;-89
2021/03/03 08:31:13;;;;;;;27.98;14.48;;;;;;;12.28;44.03;101393.09;4475797;31;33430;-88
2021/03/03 08:33:45;;;;;;;28.12;13.95;;;;;;;12.49;42.05;101400.53;4474655;31;34266;-88
2021/03/03 08:36:20;;;;;;;29.60;15.63;;;;;;;12.60;42.10;101397.59;4493303;31;33011;-88
2021/03/03 08:39:10;;;;;;;29.50;16.23;;;;;;;12.76;42.22;101395.38;4483532;31;34585;-88
2021/03/03 08:41:39;;;;;;;25.10;13.90;;;;;;;13.11;40.69;101396.19;4496228;31;34079;-89
2021/03/03 08:44:06;;;;;;;20.30;12.20;;;;;;;13.26;39.13;101390.47;4494050;31;33324;-88
2021/03/03 08:46:44;;;;;;;24.12;13.25;;;;;;;13.43;39.59;101388.16;4492148;31;33186;-86
2021/03/03 08:49:12;;;;;;;19.60;12.02;;;;;;;13.52;40.03;101393.19;4481543;31;35438;-86
2021/03/03 08:51:47;;;;;;;19.48;11.60;;;;;;;13.66;39.65;101394.56;4490245;31;33794;-86
2021/03/03 08:54:17;;;;;;;26.35;12.25;;;;;;;13.80;38.39;101395.00;4464477;31;33208;-86
2021/03/03 08:56:44;;;;;;;21.17;10.57;;;;;;;13.94;37.50;101392.78;4490081;31;34317;-86
2021/03/03 08:59:32;;;;;;;18.00;10.80;;;;;;;13.99;36.93;101392.63;4465454;31;35572;-86
2021/03/03 09:02:12;;;;;;;19.50;11.27;;;;;;;14.09;36.44;101391.41;4484742;31;34502;-84
2021/03/03 09:04:55;;;;;;;22.13;11.43;;;;;;;14.28;37.60;101389.87;4486792;31;33702;-84
2021/03/03 09:07:29;;;;;;;18.87;11.40;;;;;;;14.59;35.82;101373.78;4482039;31;34609;-84
2021/03/03 09:10:15;;;;;;;24.83;12.18;;;;;;;14.58;35.31;101388.00;4483550;31;34673;-84
2021/03/03 09:12:44;;;;;;;18.37;10.68;;;;;;;14.55;36.19;101380.13;4482727;32;35005;-84
2021/03/03 09:15:16;;;;;;;19.73;10.55;;;;;;;14.72;35.98;101368.91;4475796;31;34067;-84
2021/03/03 09:17:45;;;;;;;19.60;10.13;;;;;;;14.91;34.11;101381.50;4460432;32;35193;-84
2021/03/03 09:20:16;;;;;;;17.05;9.50;;;;;;;15.10;34.20;101364.81;4471015;32;34537;-84
2021/03/03 09:22:45;;;;;;;15.15;9.48;;;;;;;14.84;33.04;101373.75;4484532;32;33763;-84
2021/03/03 09:25:15;;;;;;;17.83;10.63;;;;;;;15.34;32.93;101373.69;4478342;31;34900;-84
2021/03/03 09:27:54;;;;;;;16.08;9.45;;;;;;;15.51;33.26;101373.00;4473483;32;34167;-84
2021/03/03 09:30:22;;;;;;;13.90;9.45;;;;;;;16.03;31.79;101362.09;4473685;31;35148;-84
2021/03/03 09:32:50;;;;;;;17.65;9.82;;;;;;;16.13;31.65;101364.28;4487850;31;33470;-84
2021/03/03 09:35:38;;;;;;;18.23;9.98;;;;;;;16.07;31.76;101356.56;4471811;31;34771;-84
2021/03/03 09:38:10;;;;;;;19.33;9.80;;;;;;;15.61;32.22;101361.06;4482388;31;32869;-84
2021/03/03 09:40:37;;;;;;;15.02;9.55;;;;;;;16.19;33.08;101357.88;4473690;31;34434;-84
2021/03/03 09:43:06;;;;;;;15.80;9.15;;;;;;;15.91;33.67;101359.94;4478388;32;35137;-84
2021/03/03 09:45:33;;;;;;;17.73;9.25;;;;;;;16.33;31.67;101349.25;4472976;31;33971;-84
2021/03/03 09:48:00;;;;;;;14.80;8.93;;;;;;;16.38;31.44;101347.28;4487178;31;33919;-84
2021/03/03 09:50:35;;;;;;;16.77;9.23;;;;;;;16.70;30.50;101345.84;4473956;31;33316;-84
2021/03/03 09:53:03;;;;;;;17.25;11.12;;;;;;;16.72;29.00;101351.16;4472629;32;35207;-85
2021/03/03 09:55:35;;;;;;;20.55;11.85;;;;;;;16.35;32.18;101358.06;4494091;31;33891;-85
2021/03/03 09:58:03;;;;;;;20.90;12.43;;;;;;;16.42;34.46;101354.19;4471337;31;34591;-82
2021/03/03 10:00:36;;;;;;;24.00;11.07;;;;;;;15.73;32.25;101353.56;4467465;31;35002;-82
2021/03/03 10:03:07;;;;;;;19.95;11.90;;;;;;;15.75;32.79;101349.03;4475451;32;35409;-83
2021/03/03 10:05:35;;;;;;;22.08;11.43;;;;;;;16.26;33.07;101343.31;4491914;31;32960;-83
2021/03/03 10:08:05;;;;;;;21.12;12.15;;;;;;;16.74;32.41;101336.81;4476302;32;33337;-85
2021/03/03 10:10:35;;;;;;;16.48;10.00;;;;;;;16.68;32.26;101338.87;4462910;31;34243;-83
2021/03/03 10:13:24;;;;;;;16.95;11.20;;;;;;;17.01;30.87;101332.03;4479814;31;33985;-82
2021/03/03 10:15:56;;;;;;;19.98;10.07;;;;;;;17.04;31.57;101331.91;4485250;31;33506;-82
2021/03/03 10:18:23;;;;;;;18.20;10.57;;;;;;;17.12;31.29;101332.37;4477646;31;33132;-82
2021/03/03 10:20:54;;;;;;;22.33;11.63;;;;;;;17.36;30.27;101334.84;4488079;31;32757;-82
2021/03/03 10:23:23;;;;;;;22.55;11.27;;;;;;;16.74;30.73;101339.47;4471682;31;33742;-82
2021/03/03 10:26:07;;;;;;;16.52;9.77;;;;;;;16.48;32.39;101332.63;4478517;31;33698;-82
2021/03/03 10:28:36;;;;;;;21.35;11.38;;;;;;;16.78;31.21;101338.41;4476967;31;33251;-82
2021/03/03 10:31:08;;;;;;;18.70;11.10;;;;;;;16.83;29.25;101333.72;4470489;31;34897;-82
2021/03/03 10:33:41;;;;;;;21.45;11.75;;;;;;;17.52;28.16;101332.28;4478336;31;34334;-82
2021/03/03 10:36:22;;;;;;;16.35;11.15;;;;;;;17.24;29.57;101327.44;4476150;31;35903;-82
2021/03/03 10:38:54;;;;;;;18.20;11.88;;;;;;;17.11;29.78;101333.34;4491481;31;33234;-82
2021/03/03 10:41:27;;;;;;;19.08;12.07;;;;;;;17.50;30.67;101323.50;4493771;31;33630;-82
2021/03/03 10:43:55;;;;;;;18.62;11.90;;;;;;;17.10;29.59;101320.94;4476658;31;33575;-82
2021/03/03 10:46:24;;;;;;;21.85;11.68;;;;;;;17.43;30.30;101317.59;4478807;31;33542;-82
2021/03/03 10:48:54;;;;;;;17.48;11.95;;;;;;;17.86;29.10;101305.72;4488993;31;32926;-82
2021/03/03 10:51:36;;;;;;;16.37;10.65;;;;;;;17.83;29.99;101299.66;4479248;31;34223;-82
2021/03/03 10:54:04;;;;;;;20.45;12.98;;;;;;;17.28;28.46;101295.19;4493592;31;33843;-82
2021/03/03 10:56:40;;;;;;;22.23;12.70;;;;;;;17.55;29.16;101287.63;4483662;31;34666;-82
2021/03/03 10:59:23;;;;;;;17.70;10.50;;;;;;;17.74;30.66;101289.41;4473420;31;33983;-82
2021/03/03 11:01:55;;;;;;;17.12;10.73;;;;;;;17.49;28.86;101282.59;4482205;32;35478;-82
2021/03/03 11:04:39;;;;;;;15.82;10.38;;;;;;;18.05;30.09;101272.72;4479235;31;35664;-82
2021/03/03 11:07:07;;;;;;;15.75;10.02;;;;;;;18.27;25.93;101269.78;4486991;31;33731;-82
2021/03/03 11:09:35;;;;;;;13.62;9.25;;;;;;;17.91;25.69;101268.06;4463647;31;34436;-82
2021/03/03 11:12:03;;;;;;;16.73;10.73;;;;;;;18.33;27.18;101267.66;4477234;31;34221;-82
2021/03/03 11:14:31;;;;;;;18.00;10.73;;;;;;;18.90;24.96;101261.97;4482935;31;35232;-82
2021/03/03 11:17:00;;;;;;;13.90;9.50;;;;;;;18.29;25.60;101262.56;4480760;31;33578;-82
2021/03/03 11:19:28;;;;;;;17.37;11.30;;;;;;;18.61;25.45;101259.03;4465282;31;33331;-82
2021/03/03 11:22:00;;;;;;;14.00;9.65;;;;;;;18.80;25.62;101250.91;4492864;31;33357;-83
2021/03/03 11:24:27;;;;;;;16.37;11.00;;;;;;;18.68;25.34;101246.16;4463980;31;35187;-82
2021/03/03 11:26:54;;;;;;;14.05;10.52;;;;;;;19.30;25.38;101243.66;4493709;31;35487;-82
2021/03/03 11:29:21;;;;;;;16.92;11.02;;;;;;;19.42;25.22;101238.47;4475889;31;33652;-82